KSFO/SFO METAR and TAF weather

Enter ICAO airport designator
Station Type Date Time Source
KSFO METAR 2019/06/18 03:56 UTC NOAA

KSFO 180356Z 30005KT 10SM FEW008 SCT200 17/12 A2986 RMK AO2 SLP110 T01670117


Station Type Date Time Source
KSFO Decoded METAR 2019/06/18 03:56 UTC NOAA

SAN FRANCISCO INTERNATIONAL AIRPORT , CA, United States (KSFO) 37-37N 122-22W 26M
Jun 17, 2019 - 11:56 PM EDT / 2019.06.18 0356 UTC
Wind: from the WNW (300 degrees) at 6 MPH (5 KT):0
Visibility: 10 mile(s):0
Sky conditions: partly cloudy
Temperature: 62.1 F (16.7 C)
Dew Point: 53.1 F (11.7 C)
Relative Humidity: 72%
Pressure (altimeter): 29.86 in. Hg (1011 hPa)
ob: KSFO 180356Z 30005KT 10SM FEW008 SCT200 17/12 A2986 RMK AO2 SLP110 T01670117
cycle: 4

Station Type Date Time Source
KSFO TAF 2019/06/18 03:06 UTC NOAA

TAF
AMD KSFO 180302Z 1803/1906 29009KT P6SM FEW008 SCT200
FM180900 28006KT P6SM FEW008
FM181300 30008KT P6SM OVC012
FM181530 09006KT P6SM FEW008 SCT012
FM181700 03008KT P6SM SKC
FM182100 30013KT P6SM SKC
FM190400 28010KT P6SM FEW010

Example: see airport list